sensor_id;sensor_type;location;lat;lon;timestamp;P1;durP1;ratioP1;P2;durP2;ratioP2
15104;SDS011;7653;48.994;9.212;2022-08-01T00:01:11;2.23;;;1.87;;
15104;SDS011;7653;48.994;9.212;2022-08-01T00:03:52;2.83;;;1.83;;
15104;SDS011;7653;48.994;9.212;2022-08-01T00:06:17;2.97;;;1.83;;
15104;SDS011;7653;48.994;9.212;2022-08-01T00:08:43;2.03;;;1.70;;
15104;SDS011;7653;48.994;9.212;2022-08-01T00:11:09;1.87;;;1.77;;
15104;SDS011;7653;48.994;9.212;2022-08-01T00:13:34;3.17;;;1.90;;
15104;SDS011;7653;48.994;9.212;2022-08-01T00:16:00;3.57;;;1.83;;
15104;SDS011;7653;48.994;9.212;2022-08-01T00:18:26;2.33;;;1.80;;
15104;SDS011;7653;48.994;9.212;2022-08-01T00:20:55;2.20;;;2.00;;
15104;SDS011;7653;48.994;9.212;2022-08-01T00:23:21;3.60;;;2.23;;
15104;SDS011;7653;48.994;9.212;2022-08-01T00:25:46;2.70;;;1.90;;
15104;SDS011;7653;48.994;9.212;2022-08-01T00:28:13;2.43;;;2.10;;
15104;SDS011;7653;48.994;9.212;2022-08-01T00:31:01;2.10;;;1.80;;
15104;SDS011;7653;48.994;9.212;2022-08-01T00:33:27;4.30;;;2.10;;
15104;SDS011;7653;48.994;9.212;2022-08-01T00:35:53;2.80;;;2.00;;
15104;SDS011;7653;48.994;9.212;2022-08-01T00:38:22;2.40;;;2.10;;
15104;SDS011;7653;48.994;9.212;2022-08-01T00:40:48;2.33;;;2.07;;
15104;SDS011;7653;48.994;9.212;2022-08-01T00:43:14;2.00;;;1.80;;
15104;SDS011;7653;48.994;9.212;2022-08-01T00:45:40;3.97;;;2.10;;
15104;SDS011;7653;48.994;9.212;2022-08-01T00:48:06;2.20;;;2.00;;
15104;SDS011;7653;48.994;9.212;2022-08-01T00:50:32;3.50;;;2.10;;
15104;SDS011;7653;48.994;9.212;2022-08-01T00:52:58;3.90;;;2.20;;
15104;SDS011;7653;48.994;9.212;2022-08-01T00:55:24;3.00;;;2.10;;
15104;SDS011;7653;48.994;9.212;2022-08-01T00:57:54;1.97;;;1.87;;
15104;SDS011;7653;48.994;9.212;2022-08-01T01:00:21;1.90;;;1.80;;
15104;SDS011;7653;48.994;9.212;2022-08-01T01:02:47;4.23;;;2.10;;
15104;SDS011;7653;48.994;9.212;2022-08-01T01:05:13;2.23;;;2.03;;
15104;SDS011;7653;48.994;9.212;2022-08-01T01:12:54;3.07;;;2.20;;
15104;SDS011;7653;48.994;9.212;2022-08-01T01:15:49;2.73;;;2.00;;
15104;SDS011;7653;48.994;9.212;2022-08-01T01:29:49;2.80;;;2.10;;
15104;SDS011;7653;48.994;9.212;2022-08-01T01:32:50;2.00;;;1.80;;
15104;SDS011;7653;48.994;9.212;2022-08-01T01:35:17;3.43;;;2.00;;
15104;SDS011;7653;48.994;9.212;2022-08-01T01:38:04;2.33;;;2.10;;
15104;SDS011;7653;48.994;9.212;2022-08-01T01:40:34;2.50;;;1.93;;
15104;SDS011;7653;48.994;9.212;2022-08-01T01:43:03;2.40;;;2.20;;
15104;SDS011;7653;48.994;9.212;2022-08-01T01:45:33;2.50;;;2.00;;
15104;SDS011;7653;48.994;9.212;2022-08-01T01:48:04;2.17;;;1.97;;
15104;SDS011;7653;48.994;9.212;2022-08-01T01:50:35;2.40;;;1.97;;
15104;SDS011;7653;48.994;9.212;2022-08-01T01:53:06;3.33;;;2.03;;
15104;SDS011;7653;48.994;9.212;2022-08-01T01:55:35;2.47;;;2.27;;
15104;SDS011;7653;48.994;9.212;2022-08-01T01:58:04;2.37;;;2.03;;
15104;SDS011;7653;48.994;9.212;2022-08-01T02:00:32;3.53;;;2.33;;
15104;SDS011;7653;48.994;9.212;2022-08-01T02:03:01;2.87;;;2.20;;
15104;SDS011;7653;48.994;9.212;2022-08-01T02:05:29;3.27;;;1.90;;
15104;SDS011;7653;48.994;9.212;2022-08-01T02:07:56;3.37;;;2.30;;
15104;SDS011;7653;48.994;9.212;2022-08-01T02:10:22;2.97;;;2.13;;
15104;SDS011;7653;48.994;9.212;2022-08-01T02:12:50;2.57;;;2.10;;
15104;SDS011;7653;48.994;9.212;2022-08-01T02:15:17;2.93;;;2.30;;
15104;SDS011;7653;48.994;9.212;2022-08-01T02:17:47;2.30;;;2.10;;
15104;SDS011;7653;48.994;9.212;2022-08-01T02:20:14;3.30;;;2.40;;
15104;SDS011;7653;48.994;9.212;2022-08-01T02:22:46;2.80;;;1.80;;
15104;SDS011;7653;48.994;9.212;2022-08-01T02:25:20;2.37;;;2.00;;
15104;SDS011;7653;48.994;9.212;2022-08-01T02:28:04;2.90;;;2.40;;
15104;SDS011;7653;48.994;9.212;2022-08-01T02:30:38;2.50;;;2.10;;
15104;SDS011;7653;48.994;9.212;2022-08-01T02:33:12;2.50;;;2.30;;
15104;SDS011;7653;48.994;9.212;2022-08-01T02:35:56;2.30;;;2.10;;
15104;SDS011;7653;48.994;9.212;2022-08-01T02:38:24;3.53;;;2.27;;
15104;SDS011;7653;48.994;9.212;2022-08-01T02:40:54;2.50;;;2.30;;
15104;SDS011;7653;48.994;9.212;2022-08-01T02:43:23;3.50;;;2.40;;
15104;SDS011;7653;48.994;9.212;2022-08-01T02:45:53;2.57;;;2.37;;
15104;SDS011;7653;48.994;9.212;2022-08-01T02:48:25;3.10;;;2.27;;
15104;SDS011;7653;48.994;9.212;2022-08-01T02:51:02;2.30;;;2.10;;
15104;SDS011;7653;48.994;9.212;2022-08-01T02:53:31;2.83;;;2.00;;
15104;SDS011;7653;48.994;9.212;2022-08-01T02:56:01;2.57;;;2.37;;
15104;SDS011;7653;48.994;9.212;2022-08-01T02:58:29;3.70;;;2.30;;
15104;SDS011;7653;48.994;9.212;2022-08-01T03:00:57;6.47;;;2.50;;
15104;SDS011;7653;48.994;9.212;2022-08-01T03:03:31;2.73;;;2.33;;
15104;SDS011;7653;48.994;9.212;2022-08-01T03:05:59;2.90;;;2.30;;
15104;SDS011;7653;48.994;9.212;2022-08-01T03:08:27;4.53;;;2.40;;
15104;SDS011;7653;48.994;9.212;2022-08-01T03:10:55;2.47;;;2.27;;
15104;SDS011;7653;48.994;9.212;2022-08-01T03:13:26;2.50;;;2.30;;
15104;SDS011;7653;48.994;9.212;2022-08-01T03:15:53;4.60;;;2.43;;
15104;SDS011;7653;48.994;9.212;2022-08-01T03:18:23;2.53;;;2.30;;
15104;SDS011;7653;48.994;9.212;2022-08-01T03:20:51;4.03;;;2.70;;
15104;SDS011;7653;48.994;9.212;2022-08-01T03:23:19;2.57;;;2.37;;
15104;SDS011;7653;48.994;9.212;2022-08-01T03:25:49;2.60;;;2.40;;
15104;SDS011;7653;48.994;9.212;2022-08-01T03:28:17;2.83;;;2.53;;
15104;SDS011;7653;48.994;9.212;2022-08-01T03:30:44;3.37;;;2.77;;
15104;SDS011;7653;48.994;9.212;2022-08-01T03:33:10;3.33;;;2.77;;
15104;SDS011;7653;48.994;9.212;2022-08-01T03:35:38;3.23;;;2.93;;
15104;SDS011;7653;48.994;9.212;2022-08-01T03:38:08;2.90;;;2.70;;
15104;SDS011;7653;48.994;9.212;2022-08-01T03:40:39;3.23;;;2.93;;
15104;SDS011;7653;48.994;9.212;2022-08-01T03:43:11;3.77;;;3.03;;
15104;SDS011;7653;48.994;9.212;2022-08-01T03:45:53;3.87;;;3.13;;
15104;SDS011;7653;48.994;9.212;2022-08-01T03:48:28;5.13;;;2.70;;
15104;SDS011;7653;48.994;9.212;2022-08-01T03:50:56;3.27;;;2.60;;
15104;SDS011;7653;48.994;9.212;2022-08-01T03:53:24;2.67;;;2.47;;
15104;SDS011;7653;48.994;9.212;2022-08-01T03:55:55;2.97;;;2.50;;
15104;SDS011;7653;48.994;9.212;2022-08-01T03:58:21;3.33;;;2.67;;
15104;SDS011;7653;48.994;9.212;2022-08-01T04:00:48;5.53;;;2.70;;
15104;SDS011;7653;48.994;9.212;2022-08-01T04:03:14;3.00;;;2.70;;
15104;SDS011;7653;48.994;9.212;2022-08-01T04:05:40;4.53;;;2.70;;
15104;SDS011;7653;48.994;9.212;2022-08-01T04:08:07;4.60;;;3.03;;
15104;SDS011;7653;48.994;9.212;2022-08-01T04:10:33;3.10;;;2.03;;
15104;SDS011;7653;48.994;9.212;2022-08-01T04:12:58;3.97;;;2.50;;
15104;SDS011;7653;48.994;9.212;2022-08-01T04:15:24;3.17;;;2.73;;
15104;SDS011;7653;48.994;9.212;2022-08-01T04:17:50;2.50;;;2.30;;
15104;SDS011;7653;48.994;9.212;2022-08-01T04:20:16;5.40;;;2.93;;
15104;SDS011;7653;48.994;9.212;2022-08-01T04:22:42;3.50;;;2.73;;
15104;SDS011;7653;48.994;9.212;2022-08-01T04:25:12;3.10;;;2.80;;
15104;SDS011;7653;48.994;9.212;2022-08-01T04:27:59;4.43;;;2.90;;
15104;SDS011;7653;48.994;9.212;2022-08-01T04:30:29;3.23;;;2.83;;
15104;SDS011;7653;48.994;9.212;2022-08-01T04:33:03;4.47;;;2.93;;
15104;SDS011;7653;48.994;9.212;2022-08-01T04:35:31;4.30;;;2.93;;
15104;SDS011;7653;48.994;9.212;2022-08-01T04:38:05;3.53;;;3.00;;
15104;SDS011;7653;48.994;9.212;2022-08-01T04:40:34;3.37;;;2.67;;
15104;SDS011;7653;48.994;9.212;2022-08-01T04:43:14;4.30;;;2.67;;
15104;SDS011;7653;48.994;9.212;2022-08-01T04:45:59;4.47;;;2.80;;
15104;SDS011;7653;48.994;9.212;2022-08-01T04:48:28;2.50;;;2.30;;
15104;SDS011;7653;48.994;9.212;2022-08-01T04:50:58;2.77;;;2.43;;
15104;SDS011;7653;48.994;9.212;2022-08-01T04:53:24;7.47;;;3.00;;
15104;SDS011;7653;48.994;9.212;2022-08-01T04:55:57;3.80;;;2.70;;
15104;SDS011;7653;48.994;9.212;2022-08-01T04:58:24;7.53;;;3.17;;
15104;SDS011;7653;48.994;9.212;2022-08-01T05:01:13;3.20;;;2.67;;
15104;SDS011;7653;48.994;9.212;2022-08-01T05:03:39;4.77;;;2.77;;
15104;SDS011;7653;48.994;9.212;2022-08-01T05:06:05;6.07;;;2.80;;
15104;SDS011;7653;48.994;9.212;2022-08-01T05:08:32;3.03;;;2.37;;
15104;SDS011;7653;48.994;9.212;2022-08-01T05:10:57;7.27;;;3.10;;
15104;SDS011;7653;48.994;9.212;2022-08-01T05:13:23;6.77;;;2.80;;
15104;SDS011;7653;48.994;9.212;2022-08-01T05:15:49;3.80;;;2.60;;
15104;SDS011;7653;48.994;9.212;2022-08-01T05:18:15;3.03;;;2.70;;
15104;SDS011;7653;48.994;9.212;2022-08-01T05:20:41;3.97;;;2.77;;
15104;SDS011;7653;48.994;9.212;2022-08-01T05:23:06;6.50;;;3.13;;
15104;SDS011;7653;48.994;9.212;2022-08-01T05:25:34;8.80;;;3.30;;
15104;SDS011;7653;48.994;9.212;2022-08-01T05:27:59;4.00;;;2.73;;
15104;SDS011;7653;48.994;9.212;2022-08-01T05:30:25;6.03;;;2.70;;
15104;SDS011;7653;48.994;9.212;2022-08-01T05:32:51;5.53;;;2.50;;
15104;SDS011;7653;48.994;9.212;2022-08-01T05:35:16;7.93;;;3.10;;
15104;SDS011;7653;48.994;9.212;2022-08-01T05:37:42;9.33;;;3.23;;
15104;SDS011;7653;48.994;9.212;2022-08-01T05:40:08;8.07;;;3.07;;
15104;SDS011;7653;48.994;9.212;2022-08-01T05:42:42;6.53;;;3.07;;
15104;SDS011;7653;48.994;9.212;2022-08-01T05:45:22;9.10;;;3.00;;
15104;SDS011;7653;48.994;9.212;2022-08-01T05:53:31;3.87;;;2.67;;
15104;SDS011;7653;48.994;9.212;2022-08-01T05:56:09;8.73;;;2.60;;
15104;SDS011;7653;48.994;9.212;2022-08-01T05:58:41;6.13;;;2.77;;
15104;SDS011;7653;48.994;9.212;2022-08-01T06:01:06;9.53;;;2.50;;
15104;SDS011;7653;48.994;9.212;2022-08-01T06:04:10;4.03;;;2.70;;
15104;SDS011;7653;48.994;9.212;2022-08-01T06:06:35;4.23;;;2.40;;
15104;SDS011;7653;48.994;9.212;2022-08-01T06:09:01;4.07;;;2.43;;
15104;SDS011;7653;48.994;9.212;2022-08-01T06:11:27;6.30;;;2.63;;
15104;SDS011;7653;48.994;9.212;2022-08-01T06:13:52;6.80;;;2.80;;
15104;SDS011;7653;48.994;9.212;2022-08-01T06:16:18;7.40;;;2.60;;
15104;SDS011;7653;48.994;9.212;2022-08-01T06:18:44;8.93;;;2.80;;
15104;SDS011;7653;48.994;9.212;2022-08-01T06:21:10;9.43;;;2.40;;
15104;SDS011;7653;48.994;9.212;2022-08-01T06:23:35;6.20;;;2.60;;
15104;SDS011;7653;48.994;9.212;2022-08-01T06:26:02;8.77;;;2.83;;
15104;SDS011;7653;48.994;9.212;2022-08-01T06:28:28;4.93;;;2.40;;
15104;SDS011;7653;48.994;9.212;2022-08-01T06:30:54;3.23;;;1.50;;
15104;SDS011;7653;48.994;9.212;2022-08-01T06:33:20;2.37;;;1.60;;
15104;SDS011;7653;48.994;9.212;2022-08-01T06:35:46;1.90;;;1.47;;
15104;SDS011;7653;48.994;9.212;2022-08-01T06:38:14;3.20;;;1.50;;
15104;SDS011;7653;48.994;9.212;2022-08-01T06:40:39;2.30;;;1.40;;
15104;SDS011;7653;48.994;9.212;2022-08-01T06:43:06;2.53;;;1.60;;
15104;SDS011;7653;48.994;9.212;2022-08-01T06:45:37;1.87;;;1.43;;
15104;SDS011;7653;48.994;9.212;2022-08-01T06:48:03;2.03;;;1.30;;
15104;SDS011;7653;48.994;9.212;2022-08-01T06:50:30;4.40;;;1.23;;
15104;SDS011;7653;48.994;9.212;2022-08-01T06:53:01;1.53;;;1.33;;
15104;SDS011;7653;48.994;9.212;2022-08-01T06:55:27;2.07;;;1.73;;
15104;SDS011;7653;48.994;9.212;2022-08-01T06:57:52;1.70;;;1.30;;
15104;SDS011;7653;48.994;9.212;2022-08-01T07:00:24;1.33;;;1.20;;
15104;SDS011;7653;48.994;9.212;2022-08-01T07:02:51;1.87;;;1.00;;
15104;SDS011;7653;48.994;9.212;2022-08-01T07:05:30;2.73;;;1.20;;
15104;SDS011;7653;48.994;9.212;2022-08-01T07:08:00;3.13;;;1.40;;
15104;SDS011;7653;48.994;9.212;2022-08-01T07:10:25;1.70;;;1.30;;
15104;SDS011;7653;48.994;9.212;2022-08-01T07:12:51;1.70;;;1.40;;
15104;SDS011;7653;48.994;9.212;2022-08-01T07:15:17;1.67;;;1.40;;
15104;SDS011;7653;48.994;9.212;2022-08-01T07:17:51;3.20;;;1.10;;
15104;SDS011;7653;48.994;9.212;2022-08-01T07:20:26;1.40;;;1.30;;
15104;SDS011;7653;48.994;9.212;2022-08-01T07:22:52;1.40;;;1.30;;
15104;SDS011;7653;48.994;9.212;2022-08-01T07:25:18;1.63;;;1.40;;
15104;SDS011;7653;48.994;9.212;2022-08-01T07:27:43;2.07;;;1.50;;
15104;SDS011;7653;48.994;9.212;2022-08-01T07:30:09;1.77;;;1.30;;
15104;SDS011;7653;48.994;9.212;2022-08-01T07:32:35;1.43;;;1.30;;
15104;SDS011;7653;48.994;9.212;2022-08-01T07:35:01;2.40;;;1.33;;
15104;SDS011;7653;48.994;9.212;2022-08-01T07:37:28;1.90;;;1.30;;
15104;SDS011;7653;48.994;9.212;2022-08-01T07:39:53;2.17;;;1.20;;
15104;SDS011;7653;48.994;9.212;2022-08-01T07:42:19;1.77;;;1.47;;
15104;SDS011;7653;48.994;9.212;2022-08-01T07:44:45;2.07;;;1.60;;
15104;SDS011;7653;48.994;9.212;2022-08-01T07:47:10;2.00;;;1.33;;
15104;SDS011;7653;48.994;9.212;2022-08-01T07:50:08;2.40;;;1.40;;
15104;SDS011;7653;48.994;9.212;2022-08-01T07:52:33;2.77;;;1.60;;
15104;SDS011;7653;48.994;9.212;2022-08-01T07:54:59;4.97;;;1.70;;
15104;SDS011;7653;48.994;9.212;2022-08-01T07:57:25;2.00;;;1.20;;
15104;SDS011;7653;48.994;9.212;2022-08-01T07:59:52;3.77;;;1.60;;
15104;SDS011;7653;48.994;9.212;2022-08-01T08:02:20;1.47;;;1.37;;
15104;SDS011;7653;48.994;9.212;2022-08-01T08:05:58;1.60;;;1.47;;
15104;SDS011;7653;48.994;9.212;2022-08-01T08:08:44;1.50;;;1.40;;
15104;SDS011;7653;48.994;9.212;2022-08-01T08:11:11;2.33;;;1.40;;
15104;SDS011;7653;48.994;9.212;2022-08-01T08:13:36;1.90;;;1.70;;
15104;SDS011;7653;48.994;9.212;2022-08-01T08:16:02;1.80;;;1.60;;
15104;SDS011;7653;48.994;9.212;2022-08-01T08:18:28;1.70;;;1.37;;
15104;SDS011;7653;48.994;9.212;2022-08-01T08:20:53;2.27;;;1.30;;
15104;SDS011;7653;48.994;9.212;2022-08-01T08:23:19;2.37;;;1.53;;
15104;SDS011;7653;48.994;9.212;2022-08-01T08:26:03;1.37;;;1.27;;
15104;SDS011;7653;48.994;9.212;2022-08-01T08:28:29;1.40;;;1.30;;
15104;SDS011;7653;48.994;9.212;2022-08-01T08:30:54;1.67;;;1.30;;
15104;SDS011;7653;48.994;9.212;2022-08-01T08:33:20;3.37;;;1.40;;
15104;SDS011;7653;48.994;9.212;2022-08-01T08:35:46;1.10;;;1.07;;
15104;SDS011;7653;48.994;9.212;2022-08-01T08:38:11;1.47;;;1.37;;
15104;SDS011;7653;48.994;9.212;2022-08-01T08:40:37;1.63;;;1.40;;
15104;SDS011;7653;48.994;9.212;2022-08-01T08:43:04;2.30;;;1.30;;
15104;SDS011;7653;48.994;9.212;2022-08-01T08:45:30;1.37;;;1.20;;
15104;SDS011;7653;48.994;9.212;2022-08-01T08:47:57;3.27;;;1.40;;
15104;SDS011;7653;48.994;9.212;2022-08-01T08:50:23;2.20;;;1.50;;
15104;SDS011;7653;48.994;9.212;2022-08-01T08:52:51;1.40;;;1.30;;
15104;SDS011;7653;48.994;9.212;2022-08-01T08:55:18;1.90;;;1.50;;
15104;SDS011;7653;48.994;9.212;2022-08-01T08:57:44;1.70;;;1.60;;
15104;SDS011;7653;48.994;9.212;2022-08-01T09:00:10;2.67;;;1.20;;
15104;SDS011;7653;48.994;9.212;2022-08-01T09:02:44;1.50;;;1.20;;
15104;SDS011;7653;48.994;9.212;2022-08-01T09:05:11;2.23;;;1.60;;
15104;SDS011;7653;48.994;9.212;2022-08-01T09:07:37;4.13;;;1.80;;
15104;SDS011;7653;48.994;9.212;2022-08-01T09:10:03;2.87;;;1.60;;
15104;SDS011;7653;48.994;9.212;2022-08-01T09:12:30;2.57;;;1.40;;
15104;SDS011;7653;48.994;9.212;2022-08-01T09:14:55;3.10;;;1.70;;
15104;SDS011;7653;48.994;9.212;2022-08-01T09:17:21;1.27;;;1.17;;
15104;SDS011;7653;48.994;9.212;2022-08-01T09:19:51;3.77;;;1.70;;
15104;SDS011;7653;48.994;9.212;2022-08-01T09:22:19;2.67;;;1.70;;
15104;SDS011;7653;48.994;9.212;2022-08-01T09:27:33;4.03;;;1.60;;
15104;SDS011;7653;48.994;9.212;2022-08-01T09:30:10;1.50;;;1.40;;
15104;SDS011;7653;48.994;9.212;2022-08-01T09:32:51;2.90;;;1.60;;
15104;SDS011;7653;48.994;9.212;2022-08-01T09:35:29;2.60;;;1.47;;
15104;SDS011;7653;48.994;9.212;2022-08-01T09:38:18;3.70;;;1.80;;
15104;SDS011;7653;48.994;9.212;2022-08-01T09:43:29;1.87;;;1.77;;
15104;SDS011;7653;48.994;9.212;2022-08-01T09:45:56;2.07;;;1.60;;
15104;SDS011;7653;48.994;9.212;2022-08-01T09:48:22;2.57;;;1.60;;
15104;SDS011;7653;48.994;9.212;2022-08-01T09:50:49;3.10;;;1.60;;
15104;SDS011;7653;48.994;9.212;2022-08-01T09:53:17;3.53;;;1.70;;
15104;SDS011;7653;48.994;9.212;2022-08-01T09:55:43;3.60;;;1.60;;
15104;SDS011;7653;48.994;9.212;2022-08-01T09:58:09;5.13;;;1.70;;
15104;SDS011;7653;48.994;9.212;2022-08-01T10:00:36;3.53;;;1.83;;
15104;SDS011;7653;48.994;9.212;2022-08-01T10:03:22;2.40;;;2.20;;
15104;SDS011;7653;48.994;9.212;2022-08-01T10:05:50;2.38;;;2.00;;
15104;SDS011;7653;48.994;9.212;2022-08-01T10:08:16;2.47;;;2.00;;
15104;SDS011;7653;48.994;9.212;2022-08-01T10:10:43;2.08;;;1.67;;
15104;SDS011;7653;48.994;9.212;2022-08-01T10:13:35;2.58;;;1.80;;
15104;SDS011;7653;48.994;9.212;2022-08-01T10:16:01;2.38;;;2.15;;
15104;SDS011;7653;48.994;9.212;2022-08-01T10:18:28;3.80;;;2.43;;
15104;SDS011;7653;48.994;9.212;2022-08-01T10:20:57;3.30;;;2.07;;
15104;SDS011;7653;48.994;9.212;2022-08-01T10:23:24;2.42;;;2.10;;
15104;SDS011;7653;48.994;9.212;2022-08-01T10:25:55;2.17;;;1.70;;
15104;SDS011;7653;48.994;9.212;2022-08-01T10:28:22;1.93;;;1.50;;
15104;SDS011;7653;48.994;9.212;2022-08-01T10:30:49;2.08;;;1.70;;
15104;SDS011;7653;48.994;9.212;2022-08-01T10:33:15;2.83;;;1.40;;
15104;SDS011;7653;48.994;9.212;2022-08-01T10:35:42;1.80;;;1.70;;
15104;SDS011;7653;48.994;9.212;2022-08-01T10:38:11;3.60;;;1.60;;
15104;SDS011;7653;48.994;9.212;2022-08-01T10:40:43;3.23;;;1.30;;
15104;SDS011;7653;48.994;9.212;2022-08-01T10:43:09;3.90;;;1.40;;
15104;SDS011;7653;48.994;9.212;2022-08-01T10:45:39;1.88;;;1.52;;
15104;SDS011;7653;48.994;9.212;2022-08-01T10:51:11;1.60;;;1.40;;
15104;SDS011;7653;48.994;9.212;2022-08-01T10:53:37;1.92;;;1.30;;
15104;SDS011;7653;48.994;9.212;2022-08-01T10:56:12;1.90;;;1.58;;
15104;SDS011;7653;48.994;9.212;2022-08-01T10:58:38;2.03;;;1.60;;
15104;SDS011;7653;48.994;9.212;2022-08-01T11:01:23;2.30;;;1.50;;
15104;SDS011;7653;48.994;9.212;2022-08-01T11:04:08;1.80;;;1.42;;
15104;SDS011;7653;48.994;9.212;2022-08-01T11:14:33;2.20;;;1.50;;
15104;SDS011;7653;48.994;9.212;2022-08-01T11:25:25;2.10;;;1.90;;
15104;SDS011;7653;48.994;9.212;2022-08-01T11:28:22;1.48;;;1.23;;
15104;SDS011;7653;48.994;9.212;2022-08-01T11:33:47;1.75;;;1.65;;
15104;SDS011;7653;48.994;9.212;2022-08-01T11:38:36;2.00;;;1.50;;
15104;SDS011;7653;48.994;9.212;2022-08-01T11:41:13;2.47;;;1.60;;
15104;SDS011;7653;48.994;9.212;2022-08-01T11:54:55;1.92;;;1.23;;
15104;SDS011;7653;48.994;9.212;2022-08-01T11:57:22;1.95;;;1.33;;
15104;SDS011;7653;48.994;9.212;2022-08-01T11:59:57;1.35;;;1.20;;
15104;SDS011;7653;48.994;9.212;2022-08-01T12:07:23;1.30;;;1.20;;
15104;SDS011;7653;48.994;9.212;2022-08-01T12:09:57;2.70;;;1.48;;
15104;SDS011;7653;48.994;9.212;2022-08-01T12:12:29;3.08;;;1.35;;
15104;SDS011;7653;48.994;9.212;2022-08-01T12:14:58;3.75;;;1.65;;
15104;SDS011;7653;48.994;9.212;2022-08-01T12:17:28;2.08;;;1.38;;
15104;SDS011;7653;48.994;9.212;2022-08-01T12:20:01;2.72;;;1.65;;
15104;SDS011;7653;48.994;9.212;2022-08-01T12:22:31;2.35;;;1.65;;
15104;SDS011;7653;48.994;9.212;2022-08-01T12:27:39;1.30;;;1.20;;
15104;SDS011;7653;48.994;9.212;2022-08-01T12:30:13;1.50;;;1.10;;
15104;SDS011;7653;48.994;9.212;2022-08-01T12:32:41;2.67;;;1.50;;
15104;SDS011;7653;48.994;9.212;2022-08-01T12:35:09;1.90;;;1.30;;
15104;SDS011;7653;48.994;9.212;2022-08-01T12:37:40;1.95;;;1.30;;
15104;SDS011;7653;48.994;9.212;2022-08-01T12:40:12;1.40;;;1.30;;
15104;SDS011;7653;48.994;9.212;2022-08-01T12:42:42;1.63;;;1.30;;
15104;SDS011;7653;48.994;9.212;2022-08-01T12:45:10;1.95;;;1.20;;
15104;SDS011;7653;48.994;9.212;2022-08-01T12:47:44;1.58;;;1.30;;
15104;SDS011;7653;48.994;9.212;2022-08-01T12:50:12;1.88;;;1.25;;
15104;SDS011;7653;48.994;9.212;2022-08-01T12:52:42;1.23;;;1.10;;
15104;SDS011;7653;48.994;9.212;2022-08-01T12:55:10;2.00;;;1.33;;
15104;SDS011;7653;48.994;9.212;2022-08-01T12:57:40;3.40;;;1.40;;
15104;SDS011;7653;48.994;9.212;2022-08-01T13:02:37;1.08;;;1.00;;
15104;SDS011;7653;48.994;9.212;2022-08-01T13:05:04;1.30;;;1.20;;
15104;SDS011;7653;48.994;9.212;2022-08-01T13:10:05;2.63;;;1.30;;
15104;SDS011;7653;48.994;9.212;2022-08-01T13:12:32;2.30;;;1.10;;
15104;SDS011;7653;48.994;9.212;2022-08-01T13:14:58;1.80;;;1.08;;
15104;SDS011;7653;48.994;9.212;2022-08-01T13:17:33;1.50;;;1.20;;
15104;SDS011;7653;48.994;9.212;2022-08-01T13:20:02;2.17;;;1.20;;
15104;SDS011;7653;48.994;9.212;2022-08-01T13:22:35;1.52;;;1.40;;
15104;SDS011;7653;48.994;9.212;2022-08-01T13:25:15;1.95;;;1.33;;
15104;SDS011;7653;48.994;9.212;2022-08-01T13:27:41;2.05;;;1.15;;
15104;SDS011;7653;48.994;9.212;2022-08-01T13:32:56;2.50;;;1.40;;
15104;SDS011;7653;48.994;9.212;2022-08-01T13:35:25;2.78;;;1.20;;
15104;SDS011;7653;48.994;9.212;2022-08-01T13:37:51;1.55;;;1.10;;
15104;SDS011;7653;48.994;9.212;2022-08-01T13:40:27;1.33;;;1.20;;
15104;SDS011;7653;48.994;9.212;2022-08-01T13:42:53;1.83;;;1.20;;
15104;SDS011;7653;48.994;9.212;2022-08-01T13:48:46;2.00;;;1.38;;
15104;SDS011;7653;48.994;9.212;2022-08-01T13:51:12;2.55;;;1.40;;
15104;SDS011;7653;48.994;9.212;2022-08-01T13:53:38;2.00;;;1.33;;
15104;SDS011;7653;48.994;9.212;2022-08-01T13:56:03;1.55;;;1.30;;
15104;SDS011;7653;48.994;9.212;2022-08-01T13:58:29;2.45;;;1.40;;
15104;SDS011;7653;48.994;9.212;2022-08-01T14:00:55;1.88;;;1.50;;
15104;SDS011;7653;48.994;9.212;2022-08-01T14:03:21;2.83;;;1.40;;
15104;SDS011;7653;48.994;9.212;2022-08-01T14:05:47;2.15;;;1.30;;
15104;SDS011;7653;48.994;9.212;2022-08-01T14:08:13;1.40;;;1.30;;
15104;SDS011;7653;48.994;9.212;2022-08-01T14:10:40;1.52;;;1.33;;
15104;SDS011;7653;48.994;9.212;2022-08-01T14:13:05;2.45;;;1.50;;
15104;SDS011;7653;48.994;9.212;2022-08-01T14:15:31;1.30;;;1.20;;
15104;SDS011;7653;48.994;9.212;2022-08-01T14:17:58;3.13;;;1.55;;
15104;SDS011;7653;48.994;9.212;2022-08-01T14:20:24;2.28;;;1.23;;
15104;SDS011;7653;48.994;9.212;2022-08-01T14:22:50;1.27;;;1.17;;
15104;SDS011;7653;48.994;9.212;2022-08-01T14:25:16;2.95;;;1.52;;
15104;SDS011;7653;48.994;9.212;2022-08-01T14:27:46;1.58;;;1.30;;
15104;SDS011;7653;48.994;9.212;2022-08-01T14:30:13;2.38;;;1.45;;
15104;SDS011;7653;48.994;9.212;2022-08-01T14:32:38;1.85;;;1.40;;
15104;SDS011;7653;48.994;9.212;2022-08-01T14:35:04;2.50;;;1.65;;
15104;SDS011;7653;48.994;9.212;2022-08-01T14:37:31;1.30;;;1.20;;
15104;SDS011;7653;48.994;9.212;2022-08-01T14:39:58;1.42;;;1.33;;
15104;SDS011;7653;48.994;9.212;2022-08-01T14:42:24;3.08;;;1.35;;
15104;SDS011;7653;48.994;9.212;2022-08-01T14:44:50;1.58;;;1.33;;
15104;SDS011;7653;48.994;9.212;2022-08-01T14:47:16;1.27;;;1.02;;
15104;SDS011;7653;48.994;9.212;2022-08-01T14:49:42;1.65;;;1.20;;
15104;SDS011;7653;48.994;9.212;2022-08-01T14:52:07;1.10;;;1.00;;
15104;SDS011;7653;48.994;9.212;2022-08-01T14:54:33;1.48;;;1.20;;
15104;SDS011;7653;48.994;9.212;2022-08-01T14:56:59;1.75;;;1.00;;
15104;SDS011;7653;48.994;9.212;2022-08-01T14:59:24;1.75;;;1.10;;
15104;SDS011;7653;48.994;9.212;2022-08-01T15:01:50;2.10;;;1.50;;
15104;SDS011;7653;48.994;9.212;2022-08-01T15:04:16;1.85;;;1.20;;
15104;SDS011;7653;48.994;9.212;2022-08-01T15:06:42;2.08;;;1.27;;
15104;SDS011;7653;48.994;9.212;2022-08-01T15:09:08;3.08;;;1.20;;
15104;SDS011;7653;48.994;9.212;2022-08-01T15:11:34;5.10;;;1.38;;
15104;SDS011;7653;48.994;9.212;2022-08-01T15:13:59;1.60;;;1.20;;
15104;SDS011;7653;48.994;9.212;2022-08-01T15:16:48;1.30;;;1.20;;
15104;SDS011;7653;48.994;9.212;2022-08-01T15:19:14;1.60;;;0.90;;
15104;SDS011;7653;48.994;9.212;2022-08-01T15:21:40;2.08;;;1.30;;
15104;SDS011;7653;48.994;9.212;2022-08-01T15:24:06;1.92;;;0.82;;
15104;SDS011;7653;48.994;9.212;2022-08-01T15:26:32;2.35;;;1.27;;
15104;SDS011;7653;48.994;9.212;2022-08-01T15:28:57;1.48;;;0.90;;
15104;SDS011;7653;48.994;9.212;2022-08-01T15:31:23;1.00;;;0.90;;
15104;SDS011;7653;48.994;9.212;2022-08-01T15:33:49;1.75;;;1.27;;
15104;SDS011;7653;48.994;9.212;2022-08-01T15:36:14;2.80;;;1.05;;
15104;SDS011;7653;48.994;9.212;2022-08-01T15:38:40;1.88;;;1.10;;
15104;SDS011;7653;48.994;9.212;2022-08-01T15:41:06;1.50;;;1.13;;
15104;SDS011;7653;48.994;9.212;2022-08-01T15:43:31;1.67;;;1.05;;
15104;SDS011;7653;48.994;9.212;2022-08-01T15:45:57;1.20;;;1.00;;
15104;SDS011;7653;48.994;9.212;2022-08-01T15:48:23;1.10;;;1.00;;
15104;SDS011;7653;48.994;9.212;2022-08-01T15:50:49;2.22;;;1.17;;
15104;SDS011;7653;48.994;9.212;2022-08-01T15:53:15;2.35;;;1.20;;
15104;SDS011;7653;48.994;9.212;2022-08-01T15:55:40;2.15;;;1.10;;
15104;SDS011;7653;48.994;9.212;2022-08-01T15:58:06;1.40;;;1.13;;
15104;SDS011;7653;48.994;9.212;2022-08-01T16:00:32;1.77;;;1.25;;
15104;SDS011;7653;48.994;9.212;2022-08-01T16:02:58;3.22;;;1.20;;
15104;SDS011;7653;48.994;9.212;2022-08-01T16:05:24;1.70;;;1.08;;
15104;SDS011;7653;48.994;9.212;2022-08-01T16:07:50;1.25;;;1.08;;
15104;SDS011;7653;48.994;9.212;2022-08-01T16:10:15;1.15;;;1.05;;
15104;SDS011;7653;48.994;9.212;2022-08-01T16:12:41;2.20;;;1.15;;
15104;SDS011;7653;48.994;9.212;2022-08-01T16:15:07;1.25;;;0.90;;
15104;SDS011;7653;48.994;9.212;2022-08-01T16:17:33;2.13;;;1.00;;
15104;SDS011;7653;48.994;9.212;2022-08-01T16:19:59;1.70;;;1.00;;
15104;SDS011;7653;48.994;9.212;2022-08-01T16:22:25;1.30;;;1.20;;
15104;SDS011;7653;48.994;9.212;2022-08-01T16:24:50;2.38;;;1.30;;
15104;SDS011;7653;48.994;9.212;2022-08-01T16:27:16;4.35;;;1.17;;
15104;SDS011;7653;48.994;9.212;2022-08-01T16:29:42;2.88;;;1.30;;
15104;SDS011;7653;48.994;9.212;2022-08-01T16:32:08;2.88;;;0.90;;
15104;SDS011;7653;48.994;9.212;2022-08-01T16:34:34;1.63;;;1.13;;